createdAt,value
2016-04-25T00:00:41.091Z,0
2016-04-25T00:01:41.125Z,0
2016-04-25T00:02:41.174Z,0
2016-04-25T00:03:41.207Z,0
2016-04-25T00:04:41.226Z,0
2016-04-25T00:05:41.292Z,0
2016-04-25T00:06:41.310Z,0
2016-04-25T00:07:41.327Z,0
2016-04-25T00:08:41.393Z,0
2016-04-25T00:09:41.395Z,0
2016-04-25T00:10:41.461Z,0
2016-04-25T00:11:41.480Z,0
2016-04-25T00:12:41.216Z,0
2016-04-25T00:13:41.562Z,0
2016-04-25T00:14:41.596Z,0
2016-04-25T00:15:41.646Z,0
2016-04-25T00:16:41.665Z,0
2016-04-25T00:17:41.715Z,0
2016-04-25T00:18:41.717Z,0
2016-04-25T00:19:41.781Z,0
2016-04-25T00:20:41.816Z,0
2016-04-25T00:21:41.851Z,0
2016-04-25T00:22:41.904Z,0
2016-04-25T00:23:41.923Z,0
2016-04-25T00:24:41.942Z,0
2016-04-25T00:25:42.007Z,0
2016-04-25T00:26:42.009Z,0
2016-04-25T00:27:41.684Z,0
2016-04-25T00:28:42.093Z,0
2016-04-25T00:29:42.142Z,0
2016-04-25T00:30:42.162Z,0
2016-04-25T00:31:42.195Z,0
2016-04-25T00:32:42.245Z,0
2016-04-25T00:33:42.279Z,0
2016-04-25T00:34:42.344Z,0
2016-04-25T00:35:42.362Z,0
2016-04-25T00:36:42.380Z,0
2016-04-25T00:37:42.431Z,0
2016-04-25T00:38:42.433Z,0
2016-04-25T00:39:42.498Z,0
2016-04-25T00:40:42.532Z,0
2016-04-25T00:41:42.550Z,0
2016-04-25T00:42:42.443Z,0
2016-04-25T00:43:42.634Z,0
2016-04-25T00:44:42.668Z,0
2016-04-25T00:45:42.702Z,0
2016-04-25T00:46:42.735Z,0
2016-04-25T00:47:42.755Z,0
2016-04-25T00:48:42.819Z,0
2016-04-25T00:49:42.838Z,0
2016-04-25T00:50:42.887Z,0
2016-04-25T00:51:42.921Z,0
2016-04-25T00:52:42.939Z,0
2016-04-25T00:53:42.989Z,0
2016-04-25T00:54:42.288Z,0
2016-04-25T00:55:43.041Z,0
2016-04-25T00:56:43.106Z,0
2016-04-25T00:57:43.141Z,0
2016-04-25T00:58:43.174Z,0
2016-04-25T00:59:43.193Z,0
2016-04-25T01:00:43.257Z,0
2016-04-25T01:01:43.259Z,0
2016-04-25T01:02:43.325Z,0
2016-04-25T01:03:43.345Z,0
2016-04-25T01:04:42.643Z,0
2016-04-25T01:05:43.412Z,0
2016-04-25T01:06:43.445Z,0
2016-04-25T01:07:43.464Z,0
2016-04-25T01:08:43.529Z,0
2016-04-25T01:09:42.829Z,0
2016-04-25T01:10:43.597Z,0
2016-04-25T01:11:43.630Z,0
2016-04-25T01:12:43.368Z,0
2016-04-25T01:13:43.699Z,0
2016-04-25T01:14:43.733Z,0
2016-04-25T01:15:43.766Z,0
2016-04-25T01:16:43.800Z,0
2016-04-25T01:17:43.850Z,0
2016-04-25T01:18:43.885Z,0
2016-04-25T01:19:43.918Z,0
2016-04-25T01:20:43.936Z,0
2016-04-25T01:21:44.001Z,0
2016-04-25T01:22:43.989Z,0
2016-04-25T01:23:44.038Z,0
2016-04-25T01:24:44.118Z,0
2016-04-25T01:25:44.121Z,0
2016-04-25T01:26:44.156Z,0
2016-04-25T01:27:44.674Z,0
2016-04-25T01:28:44.224Z,0
2016-04-25T01:29:44.273Z,0
2016-04-25T01:30:44.292Z,0
2016-04-25T01:31:44.341Z,0
2016-04-25T01:32:44.359Z,0
2016-04-25T01:33:44.425Z,0
2016-04-25T01:34:44.428Z,0
2016-04-25T01:35:44.476Z,0
2016-04-25T01:36:44.511Z,0
2016-04-25T01:37:44.545Z,0
2016-04-25T01:38:44.609Z,0
2016-04-25T01:39:44.659Z,0
2016-04-25T01:40:44.647Z,0
2016-04-25T01:41:44.697Z,0
2016-04-25T01:42:44.636Z,0
2016-04-25T01:43:44.747Z,0
2016-04-25T01:44:44.797Z,0
2016-04-25T01:45:44.832Z,0
2016-04-25T01:46:44.881Z,0
2016-04-25T01:47:44.900Z,0
2016-04-25T01:48:44.933Z,0
2016-04-25T01:49:44.983Z,0
2016-04-25T01:50:45.002Z,0
2016-04-25T01:51:45.035Z,0
2016-04-25T01:52:45.101Z,0
2016-04-25T01:53:45.104Z,0
2016-04-25T01:54:45.169Z,0
2016-04-25T01:55:45.187Z,0
2016-04-25T01:56:45.221Z,0
2016-04-25T01:57:45.254Z,0
2016-04-25T01:58:45.304Z,0
2016-04-25T01:59:45.323Z,0
2016-04-25T02:00:45.372Z,0
2016-04-25T02:01:45.391Z,0
2016-04-25T02:02:45.440Z,0
2016-04-25T02:03:45.459Z,0
2016-04-25T02:04:45.523Z,0
2016-04-25T02:05:45.542Z,0
2016-04-25T02:06:45.592Z,0
2016-04-25T02:07:45.626Z,0
2016-04-25T02:08:45.659Z,0
2016-04-25T02:09:45.678Z,0
2016-04-25T02:10:45.711Z,0
2016-04-25T02:11:45.762Z,0
2016-04-25T02:12:45.655Z,0
2016-04-25T02:14:45.878Z,0
2016-04-25T02:15:45.913Z,0
2016-04-25T02:16:45.931Z,0
2016-04-25T02:17:45.980Z,0
2016-04-25T02:18:45.999Z,0
2016-04-25T02:19:46.048Z,0
2016-04-25T02:20:46.066Z,0
2016-04-25T02:21:46.117Z,0
2016-04-25T02:22:46.150Z,0
2016-04-25T02:23:46.184Z,0
2016-04-25T02:24:46.218Z,0
2016-04-25T02:25:46.251Z,0
2016-04-25T02:26:46.302Z,0
2016-04-25T02:27:46.446Z,0
2016-04-25T02:28:46.368Z,0
2016-04-25T02:29:46.404Z,0
2016-04-25T02:30:46.421Z,0
2016-04-25T02:31:46.456Z,0
2016-04-25T02:32:46.505Z,0
2016-04-25T02:33:46.555Z,0
2016-04-25T02:34:46.590Z,0
2016-04-25T02:35:46.607Z,0
2016-04-25T02:36:46.656Z,0
2016-04-25T02:37:46.675Z,0
2016-04-25T02:38:46.739Z,0
2016-04-25T02:39:46.758Z,0
2016-04-25T02:40:46.793Z,0
2016-04-25T02:41:46.858Z,0
2016-04-25T02:42:46.767Z,0
2016-04-25T02:43:46.894Z,0
2016-04-25T02:44:46.944Z,0
2016-04-25T02:45:46.962Z,0
2016-04-25T02:46:47.012Z,0
2016-04-25T02:47:47.045Z,0
2016-04-25T02:48:47.064Z,0
2016-04-25T02:49:47.114Z,0
2016-04-25T02:50:47.147Z,0
2016-04-25T02:51:47.181Z,0
2016-04-25T02:52:47.216Z,0
2016-04-25T02:53:47.249Z,0
2016-04-25T02:54:47.283Z,0
2016-04-25T02:55:47.332Z,0
2016-04-25T02:56:47.367Z,0
2016-04-25T02:57:47.401Z,0
2016-04-25T02:58:47.435Z,0
2016-04-25T02:59:47.469Z,0
2016-04-25T03:00:47.518Z,0
2016-04-25T03:01:47.537Z,0
2016-04-25T03:02:47.585Z,0
2016-04-25T03:03:47.621Z,0
2016-04-25T03:04:47.638Z,0
2016-04-25T03:05:47.687Z,0
2016-04-25T03:06:47.722Z,0
2016-04-25T03:07:47.599Z,0
2016-04-25T03:08:47.789Z,0
2016-04-25T03:09:47.839Z,0
2016-04-25T03:10:47.857Z,0
2016-04-25T03:11:47.876Z,0
2016-04-25T03:12:47.831Z,0
2016-04-25T03:13:48.662Z,0
2016-04-25T03:14:48.025Z,0
2016-04-25T03:15:48.042Z,0
2016-04-25T03:16:48.077Z,0
2016-04-25T03:17:48.126Z,0
2016-04-25T03:18:48.144Z,0
2016-04-25T03:19:48.179Z,0
2016-04-25T03:20:48.244Z,0
2016-04-25T03:21:48.246Z,0
2016-04-25T03:22:48.296Z,0
2016-04-25T03:23:48.346Z,0
2016-04-25T03:24:48.348Z,0
2016-04-25T03:25:48.413Z,0
2016-04-25T03:26:48.432Z,0
2016-04-25T03:27:49.263Z,0
2016-04-25T03:28:48.515Z,0
2016-04-25T03:29:48.533Z,0
2016-04-25T03:30:48.582Z,0
2016-04-25T03:31:48.617Z,0
2016-04-25T03:32:48.636Z,0
2016-04-25T03:33:48.684Z,0
2016-04-25T03:34:48.719Z,0
2016-04-25T03:35:48.753Z,0
2016-04-25T03:36:48.802Z,0
2016-04-25T03:37:48.821Z,0
2016-04-25T03:38:48.854Z,0
2016-04-25T03:39:48.889Z,0
2016-04-25T03:40:48.937Z,0
2016-04-25T03:41:48.956Z,0
2016-04-25T03:42:49.365Z,0
2016-04-25T03:43:49.712Z,0
2016-04-25T03:44:49.058Z,0
2016-04-25T03:45:49.123Z,0
2016-04-25T03:46:49.142Z,0
2016-04-25T03:47:49.192Z,0
2016-04-25T03:48:49.225Z,0
2016-04-25T03:49:49.244Z,0
2016-04-25T03:50:49.309Z,0
2016-04-25T03:51:49.342Z,0
2016-04-25T03:52:49.361Z,0
2016-04-25T03:53:49.411Z,0
2016-04-25T03:54:49.429Z,0
2016-04-25T03:55:49.478Z,0
2016-04-25T03:56:49.528Z,0
2016-04-25T03:57:49.859Z,0
2016-04-25T03:58:50.721Z,0
2016-04-25T03:59:49.613Z,0
2016-04-25T04:00:49.648Z,0
2016-04-25T04:01:49.683Z,0
2016-04-25T04:02:49.716Z,0
2016-04-25T04:03:49.749Z,0
2016-04-25T04:04:49.799Z,0
2016-04-25T04:05:49.834Z,0
2016-04-25T04:06:49.868Z,0
2016-04-25T04:07:49.901Z,0
2016-04-25T04:08:49.920Z,0
2016-04-25T04:09:49.985Z,0
2016-04-25T04:10:49.988Z,0
2016-04-25T04:11:50.037Z,0
2016-04-25T04:12:50.727Z,0
2016-04-25T04:13:50.355Z,0
2016-04-25T04:14:50.140Z,0
2016-04-25T04:15:50.173Z,0
2016-04-25T04:16:50.239Z,0
2016-04-25T04:17:50.241Z,0
2016-04-25T04:18:50.306Z,0
2016-04-25T04:19:50.325Z,0
2016-04-25T04:20:50.358Z,0
2016-04-25T04:21:50.409Z,0
2016-04-25T04:22:50.442Z,0
2016-04-25T04:23:50.461Z,0
2016-04-25T04:24:50.510Z,0
2016-04-25T04:25:50.528Z,0
2016-04-25T04:26:50.577Z,0
2016-04-25T04:27:50.472Z,0
2016-04-25T04:28:50.536Z,0
2016-04-25T04:29:50.695Z,0
2016-04-25T04:30:50.729Z,0
2016-04-25T04:31:50.779Z,0
2016-04-25T04:32:50.781Z,0
2016-04-25T04:33:50.831Z,0
2016-04-25T04:34:50.849Z,0
2016-04-25T04:35:50.899Z,0
2016-04-25T04:36:50.948Z,0
2016-04-25T04:37:50.966Z,0
2016-04-25T04:38:51.001Z,0
2016-04-25T04:39:51.050Z,0
2016-04-25T04:40:51.084Z,0
2016-04-25T04:41:51.118Z,0
2016-04-25T04:42:52.199Z,0
2016-04-25T04:43:51.514Z,0
2016-04-25T04:44:50.485Z,0
2016-04-25T04:45:51.269Z,0
2016-04-25T04:46:51.288Z,0
2016-04-25T04:47:51.322Z,0
2016-04-25T04:48:51.387Z,0
2016-04-25T04:49:51.405Z,0
2016-04-25T04:50:51.439Z,0
2016-04-25T04:51:51.473Z,0
2016-04-25T04:52:51.492Z,0
2016-04-25T04:53:51.556Z,0
2016-04-25T04:54:51.575Z,0
2016-04-25T04:55:51.608Z,0
2016-04-25T04:56:51.642Z,0
2016-04-25T04:57:51.677Z,0
2016-04-25T04:58:51.804Z,0
2016-04-25T04:59:51.760Z,0
2016-04-25T05:00:51.778Z,0
2016-04-25T05:01:51.844Z,0
2016-04-25T05:02:51.862Z,0
2016-04-25T05:03:51.896Z,0
2016-04-25T05:04:51.946Z,0
2016-04-25T05:05:51.949Z,0
2016-04-25T05:06:52.013Z,0
2016-04-25T05:07:52.047Z,0
2016-04-25T05:08:52.081Z,0
2016-04-25T05:09:52.115Z,0
2016-04-25T05:10:52.149Z,0
2016-04-25T05:11:52.168Z,0
2016-04-25T05:12:52.596Z,0
2016-04-25T05:13:52.346Z,0
2016-04-25T05:14:52.440Z,0
2016-04-25T05:15:52.486Z,0
2016-04-25T05:16:52.596Z,0
2016-04-25T05:17:52.636Z,0
2016-04-25T05:18:52.701Z,0
2016-04-25T05:19:52.735Z,0
2016-04-25T05:20:52.785Z,0
2016-04-25T05:21:52.850Z,0
2016-04-25T05:22:52.891Z,0
2016-04-25T05:23:52.916Z,0
2016-04-25T05:24:52.972Z,0
2016-04-25T05:25:52.996Z,0
2016-04-25T05:26:53.050Z,0
2016-04-25T05:27:53.087Z,0
2016-04-25T05:28:53.139Z,0
2016-04-25T05:29:53.158Z,0
2016-04-25T05:30:53.195Z,0
2016-04-25T05:31:53.231Z,0
2016-04-25T05:32:53.281Z,0
2016-04-25T05:33:53.316Z,0
2016-04-25T05:34:53.350Z,0
2016-04-25T05:35:53.385Z,0
2016-04-25T05:36:53.404Z,0
2016-04-25T05:37:52.736Z,0
2016-04-25T05:38:53.472Z,0
2016-04-25T05:39:53.523Z,0
2016-04-25T05:40:53.558Z,0
2016-04-25T05:41:53.592Z,0
2016-04-25T05:42:53.781Z,0
2016-04-25T05:43:53.535Z,0
2016-04-25T05:44:53.709Z,0
2016-04-25T05:45:53.774Z,0
2016-04-25T05:46:53.777Z,0
2016-04-25T05:47:53.827Z,0
2016-04-25T05:48:53.845Z,0
2016-04-25T05:49:53.895Z,0
2016-04-25T05:50:53.913Z,0
2016-04-25T05:51:53.962Z,0
2016-04-25T05:52:53.997Z,0
2016-04-25T05:53:54.030Z,0
2016-04-25T05:54:54.063Z,0
2016-04-25T05:55:54.114Z,0
2016-04-25T05:56:54.132Z,0
2016-04-25T05:57:54.197Z,0
2016-04-25T05:58:54.591Z,0
2016-04-25T05:59:54.234Z,0
2016-04-25T06:00:54.299Z,0
2016-04-25T06:01:54.317Z,0
2016-04-25T06:02:54.352Z,0
2016-04-25T06:03:54.401Z,0
2016-04-25T06:04:54.418Z,0
2016-04-25T06:05:54.469Z,0
2016-04-25T06:06:54.487Z,0
2016-04-25T06:07:54.537Z,0
2016-04-25T06:08:54.587Z,0
2016-04-25T06:09:54.604Z,0
2016-04-25T06:10:54.639Z,0
2016-04-25T06:11:54.672Z,0
2016-04-25T06:12:54.706Z,0
2016-04-25T06:13:54.678Z,0
2016-04-25T06:14:54.775Z,0
2016-04-25T06:15:54.792Z,0
2016-04-25T06:16:54.858Z,0
2016-04-25T06:17:54.876Z,0
2016-04-25T06:18:54.925Z,0
2016-04-25T06:19:54.944Z,0
2016-04-25T06:20:55.009Z,0
2016-04-25T06:21:55.043Z,0
2016-04-25T06:22:55.062Z,0
2016-04-25T06:23:55.096Z,0
2016-04-25T06:24:55.130Z,0
2016-04-25T06:25:55.180Z,0
2016-04-25T06:26:55.198Z,0
2016-04-25T06:27:56.529Z,0
2016-04-25T06:28:55.672Z,0
2016-04-25T06:29:56.112Z,0
2016-04-25T06:30:55.350Z,0
2016-04-25T06:31:55.399Z,0
2016-04-25T06:32:55.417Z,0
2016-04-25T06:33:55.467Z,0
2016-04-25T06:34:55.329Z,0
2016-04-25T06:35:55.520Z,0
2016-04-25T06:36:55.569Z,0
2016-04-25T06:37:55.587Z,0
2016-04-25T06:38:55.637Z,0
2016-04-25T06:39:55.685Z,0
2016-04-25T06:40:55.705Z,0
2016-04-25T06:41:55.754Z,0
2016-04-25T06:42:55.772Z,0
2016-04-25T06:43:57.446Z,0
2016-04-25T06:44:56.778Z,0
2016-04-25T06:45:55.874Z,0
2016-04-25T06:46:26.065Z,0
2016-04-25T06:47:26.098Z,0
2016-04-25T06:48:26.149Z,0
2016-04-25T06:49:26.150Z,0
2016-04-25T06:50:26.201Z,0
2016-04-25T06:51:26.234Z,0
2016-04-25T06:52:26.268Z,0
2016-04-25T06:53:26.317Z,0
2016-04-25T06:54:26.368Z,0
2016-04-25T06:55:26.370Z,0
2016-04-25T06:56:26.420Z,0
2016-04-25T06:57:26.453Z,0
2016-04-25T06:58:26.487Z,0
2016-04-25T06:59:27.475Z,0
2016-04-25T07:00:26.571Z,0
2016-04-25T07:01:26.589Z,0
2016-04-25T07:02:26.638Z,0
2016-04-25T07:03:26.672Z,0
2016-04-25T07:04:26.722Z,0
2016-04-25T07:05:26.741Z,0
2016-04-25T07:06:26.791Z,0
2016-04-25T07:07:29.636Z,0
2016-04-25T07:08:26.858Z,0
2016-04-25T07:09:26.877Z,0
2016-04-25T07:10:26.910Z,0
2016-04-25T07:11:26.960Z,0
2016-04-25T07:12:28.338Z,0
2016-04-25T07:13:27.652Z,0
2016-04-25T07:14:27.327Z,0
2016-04-25T07:15:27.096Z,0
2016-04-25T07:16:27.145Z,4
2016-04-25T07:17:28.898Z,0
2016-04-25T07:18:27.213Z,0
2016-04-25T07:19:27.263Z,0
2016-04-25T07:20:27.265Z,0
2016-04-25T07:21:27.315Z,4
2016-04-25T07:22:28.770Z,0
2016-04-25T07:23:27.398Z,4
2016-04-25T07:24:27.432Z,0
2016-04-25T07:25:27.451Z,0
2016-04-25T07:26:27.484Z,0
2016-04-25T07:27:28.784Z,0
2016-04-25T07:28:29.006Z,0
2016-04-25T07:29:28.758Z,0
2016-04-25T07:30:27.636Z,0
2016-04-25T07:31:27.686Z,0
2016-04-25T07:32:27.657Z,0
2016-04-25T07:33:28.034Z,0
2016-04-25T07:34:27.787Z,0
2016-04-25T07:35:27.822Z,0
2016-04-25T07:36:27.855Z,0
2016-04-25T07:37:30.420Z,0
2016-04-25T07:38:27.969Z,0
2016-04-25T07:39:27.973Z,0
2016-04-25T07:40:27.991Z,0
2016-04-25T07:41:28.041Z,0
2016-04-25T07:42:31.402Z,0
2016-04-25T07:43:28.030Z,0
2016-04-25T07:44:28.235Z,0
2016-04-25T07:45:28.177Z,0
2016-04-25T07:46:28.194Z,0
2016-04-25T07:47:28.260Z,0
2016-04-25T07:48:28.278Z,0
2016-04-25T07:49:28.327Z,0
2016-04-25T07:50:28.362Z,0
2016-04-25T07:51:28.379Z,0
2016-04-25T07:52:29.305Z,0
2016-04-25T07:53:28.448Z,0
2016-04-25T07:54:28.498Z,0
2016-04-25T07:55:28.532Z,0
2016-04-25T07:56:28.581Z,0
2016-04-25T07:57:29.489Z,0
2016-04-25T07:58:29.181Z,0
2016-04-25T07:59:28.526Z,0
2016-04-25T08:00:28.732Z,0
2016-04-25T08:01:28.829Z,0
2016-04-25T08:02:30.144Z,0
2016-04-25T08:03:28.819Z,0
2016-04-25T08:04:28.900Z,0
2016-04-25T08:05:28.886Z,0
2016-04-25T08:06:28.920Z,0
2016-04-25T08:07:30.251Z,0
2016-04-25T08:08:28.988Z,0
2016-04-25T08:09:29.147Z,0
2016-04-25T08:10:29.072Z,0
2016-04-25T08:11:29.091Z,0
2016-04-25T08:12:30.914Z,0
2016-04-25T08:13:30.167Z,4
2016-04-25T08:14:29.201Z,0
2016-04-25T08:15:29.250Z,0
2016-04-25T08:16:29.283Z,0
2016-04-25T08:17:29.365Z,0
2016-04-25T08:18:29.367Z,0
2016-04-25T08:19:29.386Z,0
2016-04-25T08:20:29.435Z,0
2016-04-25T08:21:29.454Z,0
2016-04-25T08:22:29.176Z,0
2016-04-25T08:23:29.539Z,4
2016-04-25T08:24:29.556Z,0
2016-04-25T08:25:29.606Z,0
2016-04-25T08:26:29.640Z,0
2016-04-25T08:27:29.924Z,0
2016-04-25T08:28:30.473Z,0
2016-04-25T08:29:29.445Z,0
2016-04-25T08:30:29.776Z,0
2016-04-25T08:31:29.825Z,0
2016-04-25T08:32:29.844Z,0
2016-04-25T08:33:29.893Z,0
2016-04-25T08:34:29.928Z,4
2016-04-25T08:35:29.946Z,0
2016-04-25T08:36:30.011Z,0
2016-04-25T08:37:30.029Z,0
2016-04-25T08:38:30.063Z,0
2016-04-25T08:39:30.097Z,0
2016-04-25T08:40:30.130Z,4
2016-04-25T08:41:30.170Z,0
2016-04-25T08:42:30.204Z,0
2016-04-25T08:43:30.737Z,0
2016-04-25T08:44:30.975Z,0
2016-04-25T08:45:30.321Z,0
2016-04-25T08:46:30.355Z,0
2016-04-25T08:47:30.420Z,0
2016-04-25T08:48:30.423Z,0
2016-04-25T08:49:30.457Z,0
2016-04-25T08:50:30.475Z,0
2016-04-25T08:51:30.540Z,0
2016-04-25T08:52:30.559Z,0
2016-04-25T08:53:30.608Z,0
2016-04-25T08:54:30.642Z,0
2016-04-25T08:55:30.676Z,0
2016-04-25T08:56:30.694Z,0
2016-04-25T08:57:30.744Z,0
2016-04-25T08:58:30.809Z,0
2016-04-25T08:59:30.656Z,0
2016-04-25T09:00:30.861Z,0
2016-04-25T09:01:30.880Z,0
2016-04-25T09:02:30.913Z,0
2016-04-25T09:03:30.947Z,0
2016-04-25T09:04:30.982Z,0
2016-04-25T09:05:31.031Z,0
2016-04-25T09:06:31.080Z,0
2016-04-25T09:07:31.083Z,0
2016-04-25T09:08:31.149Z,0
2016-04-25T09:09:31.183Z,0
2016-04-25T09:10:31.216Z,0
2016-04-25T09:11:31.235Z,0
2016-04-25T09:12:31.284Z,0
2016-04-25T09:13:31.177Z,0
2016-04-25T09:14:31.493Z,0
2016-04-25T09:15:31.386Z,0
2016-04-25T09:16:31.408Z,0
2016-04-25T09:17:31.458Z,0
2016-04-25T09:18:31.508Z,0
2016-04-25T09:19:31.526Z,0
2016-04-25T09:20:31.575Z,0
2016-04-25T09:21:31.578Z,0
2016-04-25T09:22:31.628Z,0
2016-04-25T09:23:31.677Z,0
2016-04-25T09:24:31.711Z,0
2016-04-25T09:25:31.745Z,0
2016-04-25T09:26:31.763Z,0
2016-04-25T09:27:31.813Z,0
2016-04-25T09:28:32.129Z,0
2016-04-25T09:29:32.412Z,0
2016-04-25T09:30:31.899Z,0
2016-04-25T09:31:31.964Z,4
2016-04-25T09:32:31.983Z,0
2016-04-25T09:33:32.032Z,0
2016-04-25T09:34:32.081Z,0
2016-04-25T09:35:32.084Z,4
2016-04-25T09:36:32.134Z,4
2016-04-25T09:37:32.153Z,0
2016-04-25T09:38:32.186Z,0
2016-04-25T09:39:32.236Z,0
2016-04-25T09:40:32.254Z,0
2016-04-25T09:41:32.319Z,0
2016-04-25T09:42:32.338Z,0
2016-04-25T09:43:32.403Z,0
2016-04-25T09:44:33.343Z,0
2016-04-25T09:45:32.455Z,0
2016-04-25T09:46:32.489Z,0
2016-04-25T09:47:32.523Z,0
2016-04-25T09:48:32.557Z,0
2016-04-25T09:49:32.607Z,0
2016-04-25T09:50:32.610Z,0
2016-04-25T09:51:32.674Z,4
2016-04-25T09:52:32.693Z,0
2016-04-25T09:53:32.742Z,0
2016-04-25T09:54:32.776Z,0
2016-04-25T09:55:32.810Z,0
2016-04-25T09:56:32.844Z,0
2016-04-25T09:57:32.878Z,0
2016-04-25T09:58:32.896Z,0
2016-04-25T09:59:33.274Z,0
2016-04-25T10:00:32.980Z,0
2016-04-25T10:01:33.045Z,0
2016-04-25T10:02:33.079Z,0
2016-04-25T10:03:33.081Z,4
2016-04-25T10:04:33.147Z,4
2016-04-25T10:05:33.165Z,4
2016-04-25T10:06:33.199Z,0
2016-04-25T10:07:33.233Z,0
2016-04-25T10:08:33.283Z,0
2016-04-25T10:09:33.317Z,0
2016-04-25T10:10:33.351Z,0
2016-04-25T10:11:33.384Z,0
2016-04-25T10:12:33.418Z,0
2016-04-25T10:13:33.640Z,0
2016-04-25T10:14:33.690Z,0
2016-04-25T10:15:33.520Z,0
2016-04-25T10:16:33.570Z,0
2016-04-25T10:17:33.588Z,0
2016-04-25T10:18:33.622Z,0
2016-04-25T10:19:33.672Z,0
2016-04-25T10:20:33.691Z,0
2016-04-25T10:21:33.739Z,0
2016-04-25T10:22:33.773Z,0
2016-04-25T10:23:33.791Z,0
2016-04-25T10:24:33.857Z,0
2016-04-25T10:25:33.860Z,0
2016-04-25T10:26:33.910Z,0
2016-04-25T10:27:33.959Z,0
2016-04-25T10:28:34.008Z,0
2016-04-25T10:29:34.074Z,0
2016-04-25T10:30:34.061Z,0
2016-04-25T10:31:33.804Z,0
2016-04-25T10:32:34.149Z,0
2016-04-25T10:33:34.152Z,0
2016-04-25T10:34:34.178Z,0
2016-04-25T10:35:34.449Z,4
2016-04-25T10:36:34.248Z,4
2016-04-25T10:37:34.314Z,4
2016-04-25T10:38:34.332Z,4
2016-04-25T10:39:34.367Z,4
2016-04-25T10:40:34.416Z,0
2016-04-25T10:41:34.450Z,4
2016-04-25T10:42:34.467Z,4
2016-04-25T10:43:34.845Z,4
2016-04-25T10:44:35.270Z,4
2016-04-25T10:45:34.586Z,4
2016-04-25T10:46:34.603Z,0
2016-04-25T10:47:34.684Z,0
2016-04-25T10:48:34.672Z,0
2016-04-25T10:49:34.737Z,0
2016-04-25T10:50:34.052Z,0
2016-04-25T10:51:34.789Z,0
2016-04-25T10:52:34.838Z,0
2016-04-25T10:53:34.872Z,0
2016-04-25T10:54:34.890Z,0
2016-04-25T10:55:34.972Z,0
2016-04-25T10:56:34.974Z,0
2016-04-25T10:57:35.024Z,0
2016-04-25T10:58:35.057Z,0
2016-04-25T10:59:35.546Z,0
2016-04-25T11:00:35.141Z,0
2016-04-25T11:01:35.160Z,0
2016-04-25T11:02:35.209Z,0
2016-04-25T11:03:35.212Z,0
2016-04-25T11:04:35.277Z,0
2016-04-25T11:05:35.279Z,0
2016-04-25T11:06:35.345Z,0
2016-04-25T11:07:35.379Z,0
2016-04-25T11:08:35.413Z,0
2016-04-25T11:09:35.462Z,0
2016-04-25T11:10:35.481Z,0
2016-04-25T11:11:35.515Z,0
2016-04-25T11:12:35.564Z,0
2016-04-25T11:13:35.785Z,0
2016-04-25T11:14:35.304Z,0
2016-04-25T11:15:35.666Z,0
2016-04-25T11:16:35.700Z,0
2016-04-25T11:17:35.734Z,0
2016-04-25T11:18:35.768Z,4
2016-04-25T11:19:35.802Z,4
2016-04-25T11:20:35.836Z,0
2016-04-25T11:21:35.870Z,0
2016-04-25T11:22:35.919Z,0
2016-04-25T11:23:35.953Z,0
2016-04-25T11:24:36.002Z,0
2016-04-25T11:25:35.740Z,0
2016-04-25T11:26:36.039Z,0
2016-04-25T11:27:36.089Z,0
2016-04-25T11:28:36.124Z,4
2016-04-25T11:29:36.016Z,4
2016-04-25T11:30:36.222Z,4
2016-04-25T11:31:36.413Z,4
2016-04-25T11:32:36.274Z,0
2016-04-25T11:33:36.293Z,0
2016-04-25T11:34:36.326Z,0
2016-04-25T11:35:36.392Z,0
2016-04-25T11:36:36.410Z,0
2016-04-25T11:37:36.459Z,0
2016-04-25T11:38:36.478Z,0
2016-04-25T11:39:36.512Z,4
2016-04-25T11:40:36.561Z,4
2016-04-25T11:41:36.579Z,4
2016-04-25T12:20:47.027Z,160
2016-04-25T12:21:46.608Z,32
2016-04-25T12:22:47.549Z,16
2016-04-25T12:23:46.660Z,368
2016-04-25T12:24:46.710Z,148
2016-04-25T12:25:46.744Z,144
2016-04-25T12:48:53.821Z,476
2016-04-25T12:49:53.919Z,504
2016-04-25T12:50:53.874Z,504
2016-04-25T12:51:53.907Z,512
2016-04-25T12:52:53.957Z,464
2016-04-25T12:53:54.007Z,468
2016-04-25T12:54:54.040Z,468
2016-04-25T12:55:54.060Z,472
2016-04-25T12:56:54.129Z,476
2016-04-25T12:57:54.226Z,480
2016-04-25T12:58:54.182Z,488
2016-04-25T12:59:55.465Z,488
2016-04-25T13:00:54.312Z,488
2016-04-25T13:01:54.315Z,492
2016-04-25T13:02:54.348Z,492
2016-04-25T13:03:54.851Z,496
2016-04-25T13:04:54.464Z,496
2016-04-25T13:05:54.653Z,496
2016-04-25T13:06:54.594Z,496
2016-04-25T13:07:54.597Z,496
2016-04-25T13:08:54.771Z,500
2016-04-25T13:09:54.727Z,504
2016-04-25T13:10:54.933Z,512
2016-04-25T13:11:54.733Z,512
2016-04-25T13:12:54.781Z,356
2016-04-25T13:13:54.705Z,468
2016-04-25T13:14:54.584Z,280
2016-04-25T13:15:54.900Z,476
2016-04-25T13:16:54.949Z,276
2016-04-25T13:17:54.990Z,424
2016-04-25T13:18:55.039Z,336
2016-04-25T13:19:55.089Z,492
2016-04-25T13:20:55.107Z,496
2016-04-25T13:21:55.125Z,500
2016-04-25T13:22:55.237Z,508
2016-04-25T13:23:55.287Z,512
2016-04-25T13:24:55.289Z,520
2016-04-25T13:25:55.339Z,520
2016-04-25T13:26:55.389Z,524
2016-04-25T13:27:55.422Z,528
2016-04-25T13:28:55.909Z,532
2016-04-25T13:29:56.053Z,532
2016-04-25T13:30:55.556Z,536
2016-04-25T13:31:55.589Z,544
2016-04-25T13:32:55.655Z,552
2016-04-25T13:33:55.705Z,552
2016-04-25T13:34:55.739Z,548
2016-04-25T13:35:55.772Z,544
2016-04-25T13:36:55.821Z,540
2016-04-25T13:37:55.872Z,552
2016-04-25T13:38:55.905Z,544
2016-04-25T13:39:55.971Z,520
2016-04-25T13:40:55.974Z,548
2016-04-25T13:41:56.038Z,552
2016-04-25T13:42:56.072Z,544
2016-04-25T13:43:56.138Z,540
2016-04-25T13:44:57.203Z,544
2016-04-25T13:45:56.221Z,516
2016-04-25T13:46:56.254Z,532
2016-04-25T13:47:56.304Z,532
2016-04-25T13:48:56.338Z,524
2016-04-25T13:49:56.388Z,224
2016-04-25T13:50:56.423Z,476
2016-04-25T13:51:56.487Z,460
2016-04-25T13:52:56.506Z,460
2016-04-25T13:53:56.414Z,424
2016-04-25T13:54:56.604Z,400
2016-04-25T13:55:56.670Z,316
2016-04-25T13:56:56.688Z,312
2016-04-25T13:57:56.769Z,68
2016-04-25T13:58:56.772Z,60
2016-04-25T13:59:58.025Z,56
2016-04-25T14:00:56.871Z,52
2016-04-25T14:01:56.910Z,52
2016-04-25T14:02:56.959Z,52
2016-04-25T14:03:57.009Z,52
2016-04-25T14:04:57.043Z,52
2016-04-25T14:05:57.139Z,48
2016-04-25T14:06:57.735Z,52
2016-04-25T14:07:57.191Z,60
2016-04-25T14:08:57.225Z,68
2016-04-25T14:09:57.260Z,276
2016-04-25T14:10:57.309Z,168
2016-04-25T14:11:56.624Z,72
2016-04-25T14:12:57.407Z,288
2016-04-25T14:13:57.443Z,164
2016-04-25T14:14:57.585Z,64
2016-04-25T14:15:57.526Z,56
2016-04-25T14:16:57.575Z,52
2016-04-25T14:17:57.617Z,52
2016-04-25T14:18:57.712Z,52
2016-04-25T14:19:57.665Z,52
2016-04-25T14:20:57.883Z,64
2016-04-25T14:21:57.820Z,68
2016-04-25T14:22:57.891Z,116
2016-04-25T14:23:58.144Z,64
2016-04-25T14:24:58.179Z,60
2016-04-25T14:25:58.259Z,60
2016-04-25T14:26:58.309Z,60
2016-04-25T14:27:58.340Z,64
2016-04-25T14:28:58.427Z,80
2016-04-25T14:29:58.592Z,112
2016-04-25T14:30:58.491Z,240
2016-04-25T14:31:58.563Z,272
2016-04-25T14:32:58.601Z,376
2016-04-25T14:33:58.653Z,340
2016-04-25T14:34:58.689Z,208
2016-04-25T14:35:58.740Z,60
2016-04-25T14:36:58.776Z,112
2016-04-25T14:37:58.843Z,228
2016-04-25T14:38:58.878Z,52
2016-04-25T14:39:58.943Z,48
2016-04-25T14:40:58.963Z,48
2016-04-25T14:41:59.013Z,52
2016-04-25T14:42:59.032Z,56
2016-04-25T14:43:59.114Z,56
2016-04-25T14:44:59.913Z,64
2016-04-25T14:45:59.198Z,64
2016-04-25T14:46:59.248Z,264
2016-04-25T14:47:59.282Z,200
2016-04-25T14:48:59.315Z,248
2016-04-25T14:49:58.646Z,168
2016-04-25T14:50:59.398Z,96
2016-04-25T14:51:59.465Z,80
2016-04-25T14:52:59.498Z,84
2016-04-25T14:53:59.531Z,160
2016-04-25T14:54:59.582Z,80
2016-04-25T14:55:59.631Z,68
2016-04-25T14:56:59.695Z,68
2016-04-25T14:57:59.715Z,64
2016-04-25T14:58:59.764Z,60
2016-04-25T15:00:00.736Z,60
2016-04-25T15:00:59.864Z,56
2016-04-25T15:01:59.898Z,52
2016-04-25T15:02:59.946Z,48
2016-04-25T15:03:59.964Z,44
2016-04-25T15:05:00.030Z,40
2016-04-25T15:06:00.064Z,40
2016-04-25T15:07:00.114Z,40
2016-04-25T15:08:00.147Z,40
2016-04-25T15:09:00.197Z,40
2016-04-25T15:10:00.247Z,40
2016-04-25T15:10:59.563Z,40
2016-04-25T15:12:00.330Z,44
2016-04-25T15:13:00.379Z,48
2016-04-25T15:14:00.413Z,60
2016-04-25T15:15:00.338Z,96
2016-04-25T15:16:00.482Z,192
2016-04-25T15:17:00.563Z,180
2016-04-25T15:18:00.582Z,228
2016-04-25T15:19:00.646Z,240
2016-04-25T15:20:00.665Z,168
2016-04-25T15:21:00.729Z,208
2016-04-25T15:22:00.763Z,212
2016-04-25T15:23:00.813Z,220
2016-04-25T15:24:00.847Z,228
2016-04-25T15:25:00.896Z,212
2016-04-25T15:26:00.946Z,196
2016-04-25T15:27:00.996Z,52
2016-04-25T15:28:01.029Z,48
2016-04-25T15:29:01.064Z,48
2016-04-25T15:30:01.817Z,56
2016-04-25T15:31:01.537Z,100
2016-04-25T15:32:01.212Z,168
2016-04-25T15:33:01.231Z,192
2016-04-25T15:34:01.296Z,172
2016-04-25T15:35:01.345Z,192
2016-04-25T15:36:01.380Z,200
2016-04-25T15:37:01.428Z,188
2016-04-25T15:38:01.463Z,196